sensor_id;sensor_type;location;lat;lon;timestamp;P1;durP1;ratioP1;P2;durP2;ratioP2
59306;SDS011;47983;53.016;-2.260;2023-09-18T00:01:08;63.58;;;33.25;;
59306;SDS011;47983;53.016;-2.260;2023-09-18T00:03:37;68.50;;;33.75;;
59306;SDS011;47983;53.016;-2.260;2023-09-18T00:06:04;68.78;;;34.33;;
59306;SDS011;47983;53.016;-2.260;2023-09-18T00:08:32;66.03;;;34.38;;
59306;SDS011;47983;53.016;-2.260;2023-09-18T00:11:00;65.85;;;33.50;;
59306;SDS011;47983;53.016;-2.260;2023-09-18T00:13:28;65.60;;;33.13;;
59306;SDS011;47983;53.016;-2.260;2023-09-18T00:15:55;69.05;;;34.95;;
59306;SDS011;47983;53.016;-2.260;2023-09-18T00:18:26;64.82;;;34.08;;
59306;SDS011;47983;53.016;-2.260;2023-09-18T00:20:54;73.13;;;33.92;;
59306;SDS011;47983;53.016;-2.260;2023-09-18T00:23:22;68.93;;;35.33;;
59306;SDS011;47983;53.016;-2.260;2023-09-18T00:25:50;66.97;;;33.45;;
59306;SDS011;47983;53.016;-2.260;2023-09-18T00:28:18;74.35;;;35.13;;
59306;SDS011;47983;53.016;-2.260;2023-09-18T00:30:49;72.60;;;35.53;;
59306;SDS011;47983;53.016;-2.260;2023-09-18T00:33:17;71.68;;;36.55;;
59306;SDS011;47983;53.016;-2.260;2023-09-18T00:35:47;77.85;;;35.55;;
59306;SDS011;47983;53.016;-2.260;2023-09-18T00:38:16;73.47;;;35.45;;
59306;SDS011;47983;53.016;-2.260;2023-09-18T00:40:44;68.18;;;34.80;;
59306;SDS011;47983;53.016;-2.260;2023-09-18T00:43:12;68.75;;;35.47;;
59306;SDS011;47983;53.016;-2.260;2023-09-18T00:45:41;75.30;;;34.60;;
59306;SDS011;47983;53.016;-2.260;2023-09-18T00:48:12;77.30;;;35.97;;
59306;SDS011;47983;53.016;-2.260;2023-09-18T00:50:41;71.93;;;35.20;;
59306;SDS011;47983;53.016;-2.260;2023-09-18T00:53:14;72.28;;;34.50;;
59306;SDS011;47983;53.016;-2.260;2023-09-18T00:55:46;71.50;;;34.50;;
59306;SDS011;47983;53.016;-2.260;2023-09-18T00:58:14;71.88;;;33.72;;
59306;SDS011;47983;53.016;-2.260;2023-09-18T01:00:43;70.50;;;34.50;;
59306;SDS011;47983;53.016;-2.260;2023-09-18T01:03:11;67.68;;;33.00;;
59306;SDS011;47983;53.016;-2.260;2023-09-18T01:05:39;69.45;;;34.83;;
59306;SDS011;47983;53.016;-2.260;2023-09-18T01:08:07;70.57;;;34.78;;
59306;SDS011;47983;53.016;-2.260;2023-09-18T01:13:51;76.07;;;34.95;;
59306;SDS011;47983;53.016;-2.260;2023-09-18T01:16:39;70.45;;;34.90;;
59306;SDS011;47983;53.016;-2.260;2023-09-18T01:19:38;67.22;;;33.97;;
59306;SDS011;47983;53.016;-2.260;2023-09-18T01:22:08;65.60;;;33.70;;
59306;SDS011;47983;53.016;-2.260;2023-09-18T01:24:37;61.77;;;31.00;;
59306;SDS011;47983;53.016;-2.260;2023-09-18T01:27:08;68.80;;;33.60;;
59306;SDS011;47983;53.016;-2.260;2023-09-18T01:29:37;65.20;;;33.42;;
59306;SDS011;47983;53.016;-2.260;2023-09-18T01:32:05;70.93;;;32.60;;
59306;SDS011;47983;53.016;-2.260;2023-09-18T01:34:37;76.93;;;36.83;;
59306;SDS011;47983;53.016;-2.260;2023-09-18T01:37:10;66.60;;;34.35;;
59306;SDS011;47983;53.016;-2.260;2023-09-18T01:39:39;71.38;;;36.45;;
59306;SDS011;47983;53.016;-2.260;2023-09-18T01:42:08;71.30;;;37.35;;
59306;SDS011;47983;53.016;-2.260;2023-09-18T01:44:37;89.35;;;39.65;;
59306;SDS011;47983;53.016;-2.260;2023-09-18T01:47:17;67.50;;;34.55;;
59306;SDS011;47983;53.016;-2.260;2023-09-18T01:49:47;72.13;;;34.50;;
59306;SDS011;47983;53.016;-2.260;2023-09-18T01:52:15;62.45;;;32.45;;
59306;SDS011;47983;53.016;-2.260;2023-09-18T01:54:43;67.65;;;31.65;;
59306;SDS011;47983;53.016;-2.260;2023-09-18T01:57:11;68.47;;;31.25;;
59306;SDS011;47983;53.016;-2.260;2023-09-18T01:59:39;66.03;;;32.85;;
59306;SDS011;47983;53.016;-2.260;2023-09-18T02:02:09;63.17;;;32.78;;
59306;SDS011;47983;53.016;-2.260;2023-09-18T02:04:46;59.88;;;30.50;;
59306;SDS011;47983;53.016;-2.260;2023-09-18T02:07:34;54.03;;;29.83;;
59306;SDS011;47983;53.016;-2.260;2023-09-18T02:10:02;60.15;;;30.08;;
59306;SDS011;47983;53.016;-2.260;2023-09-18T02:12:31;57.67;;;30.15;;
59306;SDS011;47983;53.016;-2.260;2023-09-18T02:15:01;55.40;;;28.70;;
59306;SDS011;47983;53.016;-2.260;2023-09-18T02:17:33;51.72;;;29.40;;
59306;SDS011;47983;53.016;-2.260;2023-09-18T02:20:01;56.90;;;28.15;;
59306;SDS011;47983;53.016;-2.260;2023-09-18T02:22:32;60.92;;;28.80;;
59306;SDS011;47983;53.016;-2.260;2023-09-18T02:25:00;54.00;;;28.63;;
59306;SDS011;47983;53.016;-2.260;2023-09-18T02:27:27;50.78;;;28.45;;
59306;SDS011;47983;53.016;-2.260;2023-09-18T02:29:55;52.47;;;28.10;;
59306;SDS011;47983;53.016;-2.260;2023-09-18T02:32:23;51.35;;;28.05;;
59306;SDS011;47983;53.016;-2.260;2023-09-18T02:34:51;57.42;;;29.48;;
59306;SDS011;47983;53.016;-2.260;2023-09-18T02:37:18;56.30;;;28.13;;
59306;SDS011;47983;53.016;-2.260;2023-09-18T02:39:46;61.28;;;29.88;;
59306;SDS011;47983;53.016;-2.260;2023-09-18T02:42:14;55.65;;;29.05;;
59306;SDS011;47983;53.016;-2.260;2023-09-18T02:44:41;57.90;;;28.27;;
59306;SDS011;47983;53.016;-2.260;2023-09-18T02:47:09;54.55;;;27.83;;
59306;SDS011;47983;53.016;-2.260;2023-09-18T02:49:37;54.83;;;26.98;;
59306;SDS011;47983;53.016;-2.260;2023-09-18T02:52:04;51.20;;;27.95;;
59306;SDS011;47983;53.016;-2.260;2023-09-18T02:54:32;48.17;;;26.15;;
59306;SDS011;47983;53.016;-2.260;2023-09-18T02:57:00;53.33;;;25.55;;
59306;SDS011;47983;53.016;-2.260;2023-09-18T02:59:28;48.28;;;26.95;;
59306;SDS011;47983;53.016;-2.260;2023-09-18T03:01:56;51.17;;;26.55;;
59306;SDS011;47983;53.016;-2.260;2023-09-18T03:04:23;53.58;;;26.70;;
59306;SDS011;47983;53.016;-2.260;2023-09-18T03:06:51;51.45;;;24.95;;
59306;SDS011;47983;53.016;-2.260;2023-09-18T03:09:20;47.40;;;25.10;;
59306;SDS011;47983;53.016;-2.260;2023-09-18T03:11:48;42.53;;;23.65;;
59306;SDS011;47983;53.016;-2.260;2023-09-18T03:14:16;42.50;;;23.65;;
59306;SDS011;47983;53.016;-2.260;2023-09-18T03:16:44;44.97;;;23.55;;
59306;SDS011;47983;53.016;-2.260;2023-09-18T03:19:13;49.45;;;25.70;;
59306;SDS011;47983;53.016;-2.260;2023-09-18T03:21:41;44.38;;;23.80;;
59306;SDS011;47983;53.016;-2.260;2023-09-18T03:24:09;46.00;;;22.50;;
59306;SDS011;47983;53.016;-2.260;2023-09-18T03:26:37;45.90;;;24.45;;
59306;SDS011;47983;53.016;-2.260;2023-09-18T03:29:04;49.60;;;23.10;;
59306;SDS011;47983;53.016;-2.260;2023-09-18T03:31:32;47.20;;;23.33;;
59306;SDS011;47983;53.016;-2.260;2023-09-18T03:34:00;43.40;;;23.23;;
59306;SDS011;47983;53.016;-2.260;2023-09-18T03:36:28;45.40;;;23.13;;
59306;SDS011;47983;53.016;-2.260;2023-09-18T03:38:56;45.53;;;23.90;;
59306;SDS011;47983;53.016;-2.260;2023-09-18T03:41:25;45.08;;;23.52;;
59306;SDS011;47983;53.016;-2.260;2023-09-18T03:43:52;43.75;;;22.48;;
59306;SDS011;47983;53.016;-2.260;2023-09-18T03:46:20;43.78;;;22.15;;
59306;SDS011;47983;53.016;-2.260;2023-09-18T03:48:49;43.28;;;23.50;;
59306;SDS011;47983;53.016;-2.260;2023-09-18T03:51:17;47.42;;;23.67;;
59306;SDS011;47983;53.016;-2.260;2023-09-18T03:53:46;49.33;;;24.92;;
59306;SDS011;47983;53.016;-2.260;2023-09-18T03:56:15;49.15;;;22.95;;
59306;SDS011;47983;53.016;-2.260;2023-09-18T03:58:43;34.80;;;20.92;;
59306;SDS011;47983;53.016;-2.260;2023-09-18T04:01:13;30.77;;;18.30;;
59306;SDS011;47983;53.016;-2.260;2023-09-18T04:03:41;29.20;;;18.35;;
59306;SDS011;47983;53.016;-2.260;2023-09-18T04:06:09;35.63;;;18.35;;
59306;SDS011;47983;53.016;-2.260;2023-09-18T04:08:36;34.65;;;19.35;;
59306;SDS011;47983;53.016;-2.260;2023-09-18T04:11:04;25.90;;;16.17;;
59306;SDS011;47983;53.016;-2.260;2023-09-18T04:13:32;31.58;;;15.07;;
59306;SDS011;47983;53.016;-2.260;2023-09-18T04:16:01;26.17;;;14.83;;
59306;SDS011;47983;53.016;-2.260;2023-09-18T04:20:59;23.23;;;13.18;;
59306;SDS011;47983;53.016;-2.260;2023-09-18T04:23:27;20.90;;;13.57;;
59306;SDS011;47983;53.016;-2.260;2023-09-18T04:25:58;21.65;;;13.90;;
59306;SDS011;47983;53.016;-2.260;2023-09-18T04:28:26;24.73;;;14.25;;
59306;SDS011;47983;53.016;-2.260;2023-09-18T04:30:55;20.67;;;13.23;;
59306;SDS011;47983;53.016;-2.260;2023-09-18T04:33:24;20.83;;;13.20;;
59306;SDS011;47983;53.016;-2.260;2023-09-18T04:35:53;21.45;;;13.23;;
59306;SDS011;47983;53.016;-2.260;2023-09-18T04:38:21;22.33;;;13.95;;
59306;SDS011;47983;53.016;-2.260;2023-09-18T04:40:48;23.88;;;14.30;;
59306;SDS011;47983;53.016;-2.260;2023-09-18T04:43:16;25.48;;;14.00;;
59306;SDS011;47983;53.016;-2.260;2023-09-18T04:45:44;25.77;;;16.17;;
59306;SDS011;47983;53.016;-2.260;2023-09-18T04:48:14;24.83;;;15.15;;
59306;SDS011;47983;53.016;-2.260;2023-09-18T04:50:42;25.40;;;14.57;;
59306;SDS011;47983;53.016;-2.260;2023-09-18T04:53:13;25.23;;;14.13;;
59306;SDS011;47983;53.016;-2.260;2023-09-18T04:55:42;24.02;;;15.57;;
59306;SDS011;47983;53.016;-2.260;2023-09-18T04:58:09;26.63;;;15.02;;
59306;SDS011;47983;53.016;-2.260;2023-09-18T05:00:37;23.30;;;14.88;;
59306;SDS011;47983;53.016;-2.260;2023-09-18T05:03:05;22.42;;;12.63;;
59306;SDS011;47983;53.016;-2.260;2023-09-18T05:05:34;17.90;;;12.13;;
59306;SDS011;47983;53.016;-2.260;2023-09-18T05:08:02;15.05;;;10.40;;
59306;SDS011;47983;53.016;-2.260;2023-09-18T05:10:34;13.77;;;8.40;;
59306;SDS011;47983;53.016;-2.260;2023-09-18T05:13:03;17.35;;;9.70;;
59306;SDS011;47983;53.016;-2.260;2023-09-18T05:15:31;13.15;;;8.90;;
59306;SDS011;47983;53.016;-2.260;2023-09-18T05:17:59;14.27;;;8.85;;
59306;SDS011;47983;53.016;-2.260;2023-09-18T05:20:28;17.52;;;9.13;;
59306;SDS011;47983;53.016;-2.260;2023-09-18T05:22:56;14.15;;;8.98;;
59306;SDS011;47983;53.016;-2.260;2023-09-18T05:25:26;13.68;;;7.63;;
59306;SDS011;47983;53.016;-2.260;2023-09-18T05:27:59;13.70;;;8.50;;
59306;SDS011;47983;53.016;-2.260;2023-09-18T05:30:28;13.07;;;8.40;;
59306;SDS011;47983;53.016;-2.260;2023-09-18T05:32:59;11.48;;;8.65;;
59306;SDS011;47983;53.016;-2.260;2023-09-18T05:35:36;13.63;;;9.18;;
59306;SDS011;47983;53.016;-2.260;2023-09-18T05:38:09;11.95;;;8.35;;
59306;SDS011;47983;53.016;-2.260;2023-09-18T05:40:41;12.30;;;8.68;;
59306;SDS011;47983;53.016;-2.260;2023-09-18T05:43:09;12.00;;;8.02;;
59306;SDS011;47983;53.016;-2.260;2023-09-18T05:45:37;13.93;;;7.82;;
59306;SDS011;47983;53.016;-2.260;2023-09-18T05:48:05;13.20;;;7.50;;
59306;SDS011;47983;53.016;-2.260;2023-09-18T05:50:33;13.23;;;7.85;;
59306;SDS011;47983;53.016;-2.260;2023-09-18T05:53:05;12.93;;;7.13;;
59306;SDS011;47983;53.016;-2.260;2023-09-18T05:55:33;14.23;;;6.47;;
59306;SDS011;47983;53.016;-2.260;2023-09-18T05:58:02;13.32;;;6.13;;
59306;SDS011;47983;53.016;-2.260;2023-09-18T06:00:34;8.77;;;6.03;;
59306;SDS011;47983;53.016;-2.260;2023-09-18T06:03:02;10.20;;;5.43;;
59306;SDS011;47983;53.016;-2.260;2023-09-18T06:05:30;6.50;;;4.25;;
59306;SDS011;47983;53.016;-2.260;2023-09-18T06:07:59;5.28;;;4.22;;
59306;SDS011;47983;53.016;-2.260;2023-09-18T06:10:27;9.63;;;4.78;;
59306;SDS011;47983;53.016;-2.260;2023-09-18T06:12:55;5.72;;;4.55;;
59306;SDS011;47983;53.016;-2.260;2023-09-18T06:15:23;10.27;;;4.53;;
59306;SDS011;47983;53.016;-2.260;2023-09-18T06:17:52;6.53;;;4.20;;
59306;SDS011;47983;53.016;-2.260;2023-09-18T06:20:20;9.38;;;4.68;;
59306;SDS011;47983;53.016;-2.260;2023-09-18T06:22:49;8.52;;;4.75;;
59306;SDS011;47983;53.016;-2.260;2023-09-18T06:25:16;11.52;;;5.18;;
59306;SDS011;47983;53.016;-2.260;2023-09-18T06:27:44;11.30;;;4.80;;
59306;SDS011;47983;53.016;-2.260;2023-09-18T06:30:13;8.93;;;4.38;;
59306;SDS011;47983;53.016;-2.260;2023-09-18T06:32:41;13.52;;;4.97;;
59306;SDS011;47983;53.016;-2.260;2023-09-18T06:35:09;8.77;;;5.35;;
59306;SDS011;47983;53.016;-2.260;2023-09-18T06:37:37;9.23;;;5.10;;
59306;SDS011;47983;53.016;-2.260;2023-09-18T06:40:05;10.45;;;5.55;;
59306;SDS011;47983;53.016;-2.260;2023-09-18T06:42:33;10.93;;;5.75;;
59306;SDS011;47983;53.016;-2.260;2023-09-18T06:45:01;8.60;;;6.22;;
59306;SDS011;47983;53.016;-2.260;2023-09-18T06:47:34;13.50;;;7.20;;
59306;SDS011;47983;53.016;-2.260;2023-09-18T06:50:02;12.27;;;6.50;;
59306;SDS011;47983;53.016;-2.260;2023-09-18T06:52:33;9.30;;;6.88;;
59306;SDS011;47983;53.016;-2.260;2023-09-18T06:55:01;13.85;;;7.00;;
59306;SDS011;47983;53.016;-2.260;2023-09-18T06:57:28;15.60;;;7.35;;
59306;SDS011;47983;53.016;-2.260;2023-09-18T06:59:56;12.35;;;6.90;;
59306;SDS011;47983;53.016;-2.260;2023-09-18T07:02:25;9.57;;;6.78;;
59306;SDS011;47983;53.016;-2.260;2023-09-18T07:04:57;15.82;;;8.55;;
59306;SDS011;47983;53.016;-2.260;2023-09-18T07:07:25;16.83;;;10.20;;
59306;SDS011;47983;53.016;-2.260;2023-09-18T07:09:53;12.82;;;8.60;;
59306;SDS011;47983;53.016;-2.260;2023-09-18T07:12:31;15.98;;;9.02;;
59306;SDS011;47983;53.016;-2.260;2023-09-18T07:15:02;17.42;;;8.75;;
59306;SDS011;47983;53.016;-2.260;2023-09-18T07:17:31;14.77;;;9.50;;
59306;SDS011;47983;53.016;-2.260;2023-09-18T07:20:01;13.02;;;8.68;;
59306;SDS011;47983;53.016;-2.260;2023-09-18T07:22:35;13.60;;;7.93;;
59306;SDS011;47983;53.016;-2.260;2023-09-18T07:25:06;12.15;;;6.78;;
59306;SDS011;47983;53.016;-2.260;2023-09-18T07:27:34;13.40;;;5.80;;
59306;SDS011;47983;53.016;-2.260;2023-09-18T07:30:04;9.40;;;6.75;;
59306;SDS011;47983;53.016;-2.260;2023-09-18T07:32:32;14.80;;;6.15;;
59306;SDS011;47983;53.016;-2.260;2023-09-18T07:35:05;8.30;;;5.30;;
59306;SDS011;47983;53.016;-2.260;2023-09-18T07:40:06;12.93;;;4.35;;
59306;SDS011;47983;53.016;-2.260;2023-09-18T07:42:34;7.35;;;3.83;;
59306;SDS011;47983;53.016;-2.260;2023-09-18T07:45:02;6.57;;;4.28;;
59306;SDS011;47983;53.016;-2.260;2023-09-18T07:47:30;7.07;;;4.35;;
59306;SDS011;47983;53.016;-2.260;2023-09-18T07:49:59;10.00;;;3.88;;
59306;SDS011;47983;53.016;-2.260;2023-09-18T07:52:28;6.45;;;4.22;;
59306;SDS011;47983;53.016;-2.260;2023-09-18T07:54:57;7.82;;;4.30;;
59306;SDS011;47983;53.016;-2.260;2023-09-18T07:57:25;5.95;;;3.63;;
59306;SDS011;47983;53.016;-2.260;2023-09-18T07:59:57;9.52;;;3.63;;
59306;SDS011;47983;53.016;-2.260;2023-09-18T08:02:40;8.85;;;3.45;;
59306;SDS011;47983;53.016;-2.260;2023-09-18T08:05:07;5.10;;;3.30;;
59306;SDS011;47983;53.016;-2.260;2023-09-18T08:07:36;8.85;;;2.92;;
59306;SDS011;47983;53.016;-2.260;2023-09-18T08:10:05;11.20;;;2.70;;
59306;SDS011;47983;53.016;-2.260;2023-09-18T08:12:35;8.95;;;2.92;;
59306;SDS011;47983;53.016;-2.260;2023-09-18T08:15:04;4.13;;;1.80;;
59306;SDS011;47983;53.016;-2.260;2023-09-18T08:17:33;11.68;;;2.40;;
59306;SDS011;47983;53.016;-2.260;2023-09-18T08:20:02;5.88;;;1.90;;
59306;SDS011;47983;53.016;-2.260;2023-09-18T08:22:37;7.47;;;1.95;;
59306;SDS011;47983;53.016;-2.260;2023-09-18T08:25:05;7.65;;;2.50;;
59306;SDS011;47983;53.016;-2.260;2023-09-18T08:27:38;13.50;;;2.10;;
59306;SDS011;47983;53.016;-2.260;2023-09-18T08:30:12;7.75;;;2.00;;
59306;SDS011;47983;53.016;-2.260;2023-09-18T08:32:41;5.10;;;2.00;;
59306;SDS011;47983;53.016;-2.260;2023-09-18T08:35:11;6.72;;;2.15;;
59306;SDS011;47983;53.016;-2.260;2023-09-18T08:37:42;5.40;;;1.75;;
59306;SDS011;47983;53.016;-2.260;2023-09-18T08:40:11;11.60;;;2.22;;
59306;SDS011;47983;53.016;-2.260;2023-09-18T08:42:45;5.65;;;1.70;;
59306;SDS011;47983;53.016;-2.260;2023-09-18T08:45:19;8.35;;;2.13;;
59306;SDS011;47983;53.016;-2.260;2023-09-18T08:48:02;4.00;;;1.95;;
59306;SDS011;47983;53.016;-2.260;2023-09-18T08:50:30;10.57;;;1.92;;
59306;SDS011;47983;53.016;-2.260;2023-09-18T08:53:00;9.63;;;2.10;;
59306;SDS011;47983;53.016;-2.260;2023-09-18T08:55:33;11.13;;;1.70;;
59306;SDS011;47983;53.016;-2.260;2023-09-18T08:58:01;6.18;;;1.55;;
59306;SDS011;47983;53.016;-2.260;2023-09-18T09:00:29;7.20;;;1.95;;
59306;SDS011;47983;53.016;-2.260;2023-09-18T09:02:57;6.07;;;1.63;;
59306;SDS011;47983;53.016;-2.260;2023-09-18T09:05:26;6.33;;;1.90;;
59306;SDS011;47983;53.016;-2.260;2023-09-18T09:07:54;3.72;;;1.65;;
59306;SDS011;47983;53.016;-2.260;2023-09-18T09:10:23;4.65;;;2.22;;
59306;SDS011;47983;53.016;-2.260;2023-09-18T09:12:53;9.93;;;1.65;;
59306;SDS011;47983;53.016;-2.260;2023-09-18T09:15:27;9.05;;;1.65;;
59306;SDS011;47983;53.016;-2.260;2023-09-18T09:18:06;9.60;;;2.10;;
59306;SDS011;47983;53.016;-2.260;2023-09-18T09:20:35;8.27;;;1.80;;
59306;SDS011;47983;53.016;-2.260;2023-09-18T09:23:04;4.40;;;1.45;;
59306;SDS011;47983;53.016;-2.260;2023-09-18T09:25:34;8.80;;;2.00;;
59306;SDS011;47983;53.016;-2.260;2023-09-18T09:28:03;7.78;;;1.33;;
59306;SDS011;47983;53.016;-2.260;2023-09-18T09:30:33;5.22;;;1.33;;
59306;SDS011;47983;53.016;-2.260;2023-09-18T09:33:04;7.35;;;1.85;;
59306;SDS011;47983;53.016;-2.260;2023-09-18T09:35:34;6.40;;;1.65;;
59306;SDS011;47983;53.016;-2.260;2023-09-18T09:38:10;6.63;;;1.58;;
59306;SDS011;47983;53.016;-2.260;2023-09-18T09:40:41;6.00;;;2.15;;
59306;SDS011;47983;53.016;-2.260;2023-09-18T09:43:11;7.17;;;1.97;;
59306;SDS011;47983;53.016;-2.260;2023-09-18T09:45:42;14.63;;;2.25;;
59306;SDS011;47983;53.016;-2.260;2023-09-18T09:48:13;17.13;;;2.42;;
59306;SDS011;47983;53.016;-2.260;2023-09-18T09:50:45;5.10;;;2.25;;
59306;SDS011;47983;53.016;-2.260;2023-09-18T09:53:16;12.30;;;2.40;;
59306;SDS011;47983;53.016;-2.260;2023-09-18T09:55:44;13.98;;;3.13;;
59306;SDS011;47983;53.016;-2.260;2023-09-18T09:58:12;8.73;;;2.78;;
59306;SDS011;47983;53.016;-2.260;2023-09-18T10:00:43;8.23;;;2.67;;
59306;SDS011;47983;53.016;-2.260;2023-09-18T10:03:18;6.07;;;2.20;;
59306;SDS011;47983;53.016;-2.260;2023-09-18T10:05:50;7.95;;;2.47;;
59306;SDS011;47983;53.016;-2.260;2023-09-18T10:08:22;8.55;;;2.50;;
59306;SDS011;47983;53.016;-2.260;2023-09-18T10:10:55;15.35;;;2.70;;
59306;SDS011;47983;53.016;-2.260;2023-09-18T10:16:04;7.22;;;2.33;;
59306;SDS011;47983;53.016;-2.260;2023-09-18T10:18:41;6.72;;;1.80;;
59306;SDS011;47983;53.016;-2.260;2023-09-18T10:21:35;6.57;;;1.80;;
59306;SDS011;47983;53.016;-2.260;2023-09-18T10:24:14;8.75;;;2.95;;
59306;SDS011;47983;53.016;-2.260;2023-09-18T10:26:55;8.00;;;2.42;;
59306;SDS011;47983;53.016;-2.260;2023-09-18T10:29:24;14.38;;;3.08;;
59306;SDS011;47983;53.016;-2.260;2023-09-18T10:31:52;21.10;;;3.30;;
59306;SDS011;47983;53.016;-2.260;2023-09-18T10:34:21;28.90;;;3.70;;
59306;SDS011;47983;53.016;-2.260;2023-09-18T10:36:51;9.60;;;2.78;;
59306;SDS011;47983;53.016;-2.260;2023-09-18T10:39:23;5.40;;;2.15;;
59306;SDS011;47983;53.016;-2.260;2023-09-18T10:41:53;12.93;;;2.55;;
59306;SDS011;47983;53.016;-2.260;2023-09-18T10:44:23;18.52;;;3.03;;
59306;SDS011;47983;53.016;-2.260;2023-09-18T10:46:51;13.40;;;3.15;;
59306;SDS011;47983;53.016;-2.260;2023-09-18T10:49:20;13.80;;;2.67;;
59306;SDS011;47983;53.016;-2.260;2023-09-18T10:51:48;13.13;;;3.25;;
59306;SDS011;47983;53.016;-2.260;2023-09-18T10:54:20;10.88;;;3.47;;
59306;SDS011;47983;53.016;-2.260;2023-09-18T10:59:18;11.30;;;2.90;;
59306;SDS011;47983;53.016;-2.260;2023-09-18T11:01:50;16.00;;;3.78;;
59306;SDS011;47983;53.016;-2.260;2023-09-18T11:04:19;11.70;;;2.80;;
59306;SDS011;47983;53.016;-2.260;2023-09-18T11:09:26;12.80;;;3.83;;
59306;SDS011;47983;53.016;-2.260;2023-09-18T11:28:13;8.80;;;3.00;;
59306;SDS011;47983;53.016;-2.260;2023-09-18T11:30:55;11.50;;;3.88;;
59306;SDS011;47983;53.016;-2.260;2023-09-18T11:33:38;14.73;;;3.45;;
59306;SDS011;47983;53.016;-2.260;2023-09-18T11:36:08;8.82;;;3.78;;
59306;SDS011;47983;53.016;-2.260;2023-09-18T11:41:26;9.23;;;2.95;;
59306;SDS011;47983;53.016;-2.260;2023-09-18T11:46:47;10.30;;;3.38;;
59306;SDS011;47983;53.016;-2.260;2023-09-18T11:49:19;10.10;;;3.55;;
59306;SDS011;47983;53.016;-2.260;2023-09-18T11:51:54;9.57;;;4.43;;
59306;SDS011;47983;53.016;-2.260;2023-09-18T11:54:28;7.32;;;2.58;;
59306;SDS011;47983;53.016;-2.260;2023-09-18T11:56:56;7.40;;;2.30;;
59306;SDS011;47983;53.016;-2.260;2023-09-18T11:59:38;5.80;;;2.33;;
59306;SDS011;47983;53.016;-2.260;2023-09-18T12:02:30;11.40;;;2.03;;
59306;SDS011;47983;53.016;-2.260;2023-09-18T12:05:13;4.03;;;2.00;;
59306;SDS011;47983;53.016;-2.260;2023-09-18T12:07:46;7.05;;;2.30;;
59306;SDS011;47983;53.016;-2.260;2023-09-18T12:10:15;8.73;;;2.22;;
59306;SDS011;47983;53.016;-2.260;2023-09-18T12:12:44;7.00;;;2.47;;
59306;SDS011;47983;53.016;-2.260;2023-09-18T12:15:16;3.70;;;1.67;;
59306;SDS011;47983;53.016;-2.260;2023-09-18T12:17:46;5.90;;;1.85;;
59306;SDS011;47983;53.016;-2.260;2023-09-18T12:20:17;3.72;;;1.50;;
59306;SDS011;47983;53.016;-2.260;2023-09-18T12:22:47;3.15;;;1.40;;
59306;SDS011;47983;53.016;-2.260;2023-09-18T12:25:16;3.45;;;1.33;;
59306;SDS011;47983;53.016;-2.260;2023-09-18T12:27:45;2.42;;;1.00;;
59306;SDS011;47983;53.016;-2.260;2023-09-18T12:30:18;2.42;;;0.80;;
59306;SDS011;47983;53.016;-2.260;2023-09-18T12:32:51;1.95;;;0.60;;
59306;SDS011;47983;53.016;-2.260;2023-09-18T12:35:20;5.53;;;0.88;;
59306;SDS011;47983;53.016;-2.260;2023-09-18T12:37:48;4.97;;;0.93;;
59306;SDS011;47983;53.016;-2.260;2023-09-18T12:40:31;2.67;;;0.63;;
59306;SDS011;47983;53.016;-2.260;2023-09-18T12:43:02;5.55;;;1.17;;
59306;SDS011;47983;53.016;-2.260;2023-09-18T12:45:30;3.03;;;0.75;;
59306;SDS011;47983;53.016;-2.260;2023-09-18T12:47:58;4.45;;;1.13;;
59306;SDS011;47983;53.016;-2.260;2023-09-18T12:50:26;5.15;;;0.90;;
59306;SDS011;47983;53.016;-2.260;2023-09-18T12:55:34;3.72;;;0.95;;
59306;SDS011;47983;53.016;-2.260;2023-09-18T12:58:02;4.18;;;0.90;;
59306;SDS011;47983;53.016;-2.260;2023-09-18T13:00:36;4.47;;;0.90;;
59306;SDS011;47983;53.016;-2.260;2023-09-18T13:03:03;9.73;;;1.40;;
59306;SDS011;47983;53.016;-2.260;2023-09-18T13:05:31;10.00;;;1.10;;
59306;SDS011;47983;53.016;-2.260;2023-09-18T13:08:03;10.05;;;1.20;;
59306;SDS011;47983;53.016;-2.260;2023-09-18T13:10:45;4.68;;;1.13;;
59306;SDS011;47983;53.016;-2.260;2023-09-18T13:13:17;7.85;;;1.70;;
59306;SDS011;47983;53.016;-2.260;2023-09-18T13:15:49;11.23;;;1.63;;
59306;SDS011;47983;53.016;-2.260;2023-09-18T13:18:22;7.15;;;1.58;;
59306;SDS011;47983;53.016;-2.260;2023-09-18T13:20:51;7.57;;;1.40;;
59306;SDS011;47983;53.016;-2.260;2023-09-18T13:23:20;6.47;;;1.23;;
59306;SDS011;47983;53.016;-2.260;2023-09-18T13:26:00;14.85;;;1.65;;
59306;SDS011;47983;53.016;-2.260;2023-09-18T13:28:29;10.13;;;2.45;;
59306;SDS011;47983;53.016;-2.260;2023-09-18T13:30:58;8.38;;;1.40;;
59306;SDS011;47983;53.016;-2.260;2023-09-18T13:33:32;7.97;;;1.67;;
59306;SDS011;47983;53.016;-2.260;2023-09-18T13:36:01;5.57;;;1.30;;
59306;SDS011;47983;53.016;-2.260;2023-09-18T13:38:32;12.27;;;1.98;;
59306;SDS011;47983;53.016;-2.260;2023-09-18T13:41:00;7.45;;;1.30;;
59306;SDS011;47983;53.016;-2.260;2023-09-18T13:43:29;9.57;;;1.42;;
59306;SDS011;47983;53.016;-2.260;2023-09-18T13:46:00;7.93;;;1.52;;
59306;SDS011;47983;53.016;-2.260;2023-09-18T13:48:31;10.60;;;1.40;;
59306;SDS011;47983;53.016;-2.260;2023-09-18T13:51:00;8.82;;;1.17;;
59306;SDS011;47983;53.016;-2.260;2023-09-18T13:53:30;7.18;;;1.30;;
59306;SDS011;47983;53.016;-2.260;2023-09-18T13:55:57;5.50;;;1.05;;
59306;SDS011;47983;53.016;-2.260;2023-09-18T13:58:25;7.57;;;1.65;;
59306;SDS011;47983;53.016;-2.260;2023-09-18T14:00:53;9.77;;;1.20;;
59306;SDS011;47983;53.016;-2.260;2023-09-18T14:03:21;8.75;;;1.23;;
59306;SDS011;47983;53.016;-2.260;2023-09-18T14:05:50;7.43;;;1.38;;
59306;SDS011;47983;53.016;-2.260;2023-09-18T14:08:18;7.07;;;1.67;;
59306;SDS011;47983;53.016;-2.260;2023-09-18T14:10:46;9.85;;;1.55;;
59306;SDS011;47983;53.016;-2.260;2023-09-18T14:13:13;10.82;;;1.60;;
59306;SDS011;47983;53.016;-2.260;2023-09-18T14:15:41;10.68;;;1.88;;
59306;SDS011;47983;53.016;-2.260;2023-09-18T14:18:27;8.80;;;1.30;;
59306;SDS011;47983;53.016;-2.260;2023-09-18T14:20:56;8.55;;;1.33;;
59306;SDS011;47983;53.016;-2.260;2023-09-18T14:23:24;7.38;;;1.48;;
59306;SDS011;47983;53.016;-2.260;2023-09-18T14:25:53;10.43;;;1.30;;
59306;SDS011;47983;53.016;-2.260;2023-09-18T14:28:22;10.02;;;1.65;;
59306;SDS011;47983;53.016;-2.260;2023-09-18T14:30:50;9.73;;;1.20;;
59306;SDS011;47983;53.016;-2.260;2023-09-18T14:33:18;10.63;;;1.80;;
59306;SDS011;47983;53.016;-2.260;2023-09-18T14:35:46;11.00;;;1.33;;
59306;SDS011;47983;53.016;-2.260;2023-09-18T14:38:14;6.28;;;1.20;;
59306;SDS011;47983;53.016;-2.260;2023-09-18T14:40:42;8.85;;;1.33;;
59306;SDS011;47983;53.016;-2.260;2023-09-18T14:43:09;12.55;;;1.65;;
59306;SDS011;47983;53.016;-2.260;2023-09-18T14:45:38;11.50;;;1.80;;
59306;SDS011;47983;53.016;-2.260;2023-09-18T14:48:07;12.40;;;1.70;;
59306;SDS011;47983;53.016;-2.260;2023-09-18T14:50:35;12.35;;;1.67;;
59306;SDS011;47983;53.016;-2.260;2023-09-18T14:53:03;8.35;;;1.33;;
59306;SDS011;47983;53.016;-2.260;2023-09-18T14:55:31;9.40;;;2.22;;
59306;SDS011;47983;53.016;-2.260;2023-09-18T14:57:58;5.18;;;1.77;;
59306;SDS011;47983;53.016;-2.260;2023-09-18T15:00:26;10.23;;;1.27;;
59306;SDS011;47983;53.016;-2.260;2023-09-18T15:02:54;7.82;;;1.35;;
59306;SDS011;47983;53.016;-2.260;2023-09-18T15:05:22;8.40;;;0.93;;
59306;SDS011;47983;53.016;-2.260;2023-09-18T15:07:50;7.13;;;1.02;;
59306;SDS011;47983;53.016;-2.260;2023-09-18T15:10:17;8.57;;;1.27;;
59306;SDS011;47983;53.016;-2.260;2023-09-18T15:12:45;5.85;;;1.45;;
59306;SDS011;47983;53.016;-2.260;2023-09-18T15:15:13;11.10;;;1.52;;
59306;SDS011;47983;53.016;-2.260;2023-09-18T15:17:40;6.82;;;1.20;;